60.3°F
Current conditions from King Hill
Updated every 5 minutes
 
  Friday August 22, 2014

Station Historical Data
Daily Summary for April 2, 2012 Units:  Both    English   Metric
« Previous Day
Next Day »
Daily Weekly Monthly Yearly Custom
  High: Low: Average:
Temperature: 45.4 °F /  7.4 °C 29.1 °F /  -1.6 °C 36.2 °F /  2.3 °C
Dew Point: 32.6 °F /  0.3 °C 11.3 °F /  -11.5 °C 23.4 °F /  -4.8 °C
Humidity: 93% 31% 64%
Wind Speed: 14.0mph /  22.5km/h - 4.4mph /  7.1km/h
Wind Gust: 24.0mph /  38.6km/h - -
Wind- - West
Pressure: 29.84 in /  1010.4 hPa 29.65 in /  1003.9 hPa -
Precipitation: 0.02 in /  0.5 mm    
Historical Graphs
 
 
Tabular Data for April 2, 2012
Time Temperature Dew Point Pressure Wind Wind Speed Wind Gust Humidity Daily Rainfall
00:00 34.4 °F /  1.3 °C 29.2 °F /  -1.6 °C 29.65in /  1003.9hPa Calm   3.0mph /  4.8km/h 81% 0.00in /  0mm
00:05 34.4 °F /  1.3 °C 29.5 °F /  -1.4 °C 29.65in /  1003.9hPa Calm   3.0mph /  4.8km/h 82% 0.00in /  0mm
00:15 34.4 °F /  1.3 °C 29.5 °F /  -1.4 °C 29.65in /  1003.9hPa Calm   2.0mph /  3.2km/h 82% 0.00in /  0mm
00:19 34.3 °F /  1.3 °C 29.4 °F /  -1.4 °C 29.65in /  1003.9hPa Calm   2.0mph /  3.2km/h 82% 0.00in /  0mm
00:25 34.2 °F /  1.2 °C 29.3 °F /  -1.5 °C 29.65in /  1003.9hPa Calm   2.0mph /  3.2km/h 82% 0.00in /  0mm
00:29 34.1 °F /  1.2 °C 29.2 °F /  -1.6 °C 29.65in /  1003.9hPa Calm   2.0mph /  3.2km/h 82% 0.00in /  0mm
00:35 34.1 °F /  1.2 °C 29.5 °F /  -1.4 °C 29.65in /  1003.9hPa Calm   2.0mph /  3.2km/h 83% 0.00in /  0mm
00:39 34.0 °F /  1.1 °C 29.4 °F /  -1.4 °C 29.65in /  1003.9hPa Calm   1.0mph /  1.6km/h 83% 0.00in /  0mm
00:45 33.9 °F /  1.1 °C 29.3 °F /  -1.5 °C 29.65in /  1003.9hPa Calm   4.0mph /  6.4km/h 83% 0.00in /  0mm
00:50 33.8 °F /  1 °C 29.5 °F /  -1.4 °C 29.65in /  1003.9hPa Calm   4.0mph /  6.4km/h 84% 0.00in /  0mm
00:59 33.6 °F /  0.9 °C 29.3 °F /  -1.5 °C 29.66in /  1004.3hPa Calm   3.0mph /  4.8km/h 84% 0.00in /  0mm
01:05 33.5 °F /  0.8 °C 29.2 °F /  -1.6 °C 29.66in /  1004.3hPa Calm   5.0mph /  8km/h 84% 0.00in /  0mm
01:09 33.4 °F /  0.8 °C 29.4 °F /  -1.4 °C 29.66in /  1004.3hPa Calm   5.0mph /  8km/h 85% 0.00in /  0mm
01:14 33.4 °F /  0.8 °C 29.4 °F /  -1.4 °C 29.66in /  1004.3hPa Calm   2.0mph /  3.2km/h 85% 0.00in /  0mm
01:19 33.3 °F /  0.7 °C 29.3 °F /  -1.5 °C 29.66in /  1004.3hPa Calm   2.0mph /  3.2km/h 85% 0.00in /  0mm
01:25 33.3 °F /  0.7 °C 29.3 °F /  -1.5 °C 29.66in /  1004.3hPa Calm   1.0mph /  1.6km/h 85% 0.00in /  0mm
01:35 33.2 °F /  0.7 °C 29.5 °F /  -1.4 °C 29.66in /  1004.3hPa Calm   4.0mph /  6.4km/h 86% 0.00in /  0mm
01:40 33.2 °F /  0.7 °C 29.5 °F /  -1.4 °C 29.66in /  1004.3hPa Calm   1.0mph /  1.6km/h 86% 0.00in /  0mm
01:49 33.0 °F /  0.6 °C 29.3 °F /  -1.5 °C 29.66in /  1004.3hPa Calm   1.0mph /  1.6km/h 86% 0.00in /  0mm
01:54 33.0 °F /  0.6 °C 29.6 °F /  -1.3 °C 29.66in /  1004.3hPa Calm   1.0mph /  1.6km/h 87% 0.00in /  0mm
01:59 33.0 °F /  0.6 °C 29.6 °F /  -1.3 °C 29.66in /  1004.3hPa Calm   1.0mph /  1.6km/h 87% 0.00in /  0mm
02:04 32.9 °F /  0.5 °C 29.5 °F /  -1.4 °C 29.66in /  1004.3hPa Calm     87% 0.00in /  0mm
02:09 32.9 °F /  0.5 °C 29.5 °F /  -1.4 °C 29.66in /  1004.3hPa Calm     87% 0.00in /  0mm
02:15 32.8 °F /  0.4 °C 29.4 °F /  -1.4 °C 29.66in /  1004.3hPa Calm     87% 0.00in /  0mm
02:19 32.8 °F /  0.4 °C 29.4 °F /  -1.4 °C 29.66in /  1004.3hPa Calm     87% 0.00in /  0mm
02:25 32.8 °F /  0.4 °C 29.6 °F /  -1.3 °C 29.67in /  1004.6hPa Calm   2.0mph /  3.2km/h 88% 0.00in /  0mm
02:30 32.8 °F /  0.4 °C 29.6 °F /  -1.3 °C 29.66in /  1004.3hPa Calm   2.0mph /  3.2km/h 88% 0.00in /  0mm
02:35 32.8 °F /  0.4 °C 29.6 °F /  -1.3 °C 29.66in /  1004.3hPa Calm   2.0mph /  3.2km/h 88% 0.00in /  0mm
02:40 32.8 °F /  0.4 °C 29.6 °F /  -1.3 °C 29.66in /  1004.3hPa Calm   2.0mph /  3.2km/h 88% 0.00in /  0mm
02:45 32.8 °F /  0.4 °C 29.6 °F /  -1.3 °C 29.67in /  1004.6hPa Calm   1.0mph /  1.6km/h 88% 0.00in /  0mm
02:55 32.6 °F /  0.3 °C 29.4 °F /  -1.4 °C 29.67in /  1004.6hPa Calm   2.0mph /  3.2km/h 88% 0.00in /  0mm
02:59 32.5 °F /  0.3 °C 29.3 °F /  -1.5 °C 29.67in /  1004.6hPa Calm   3.0mph /  4.8km/h 88% 0.00in /  0mm
03:04 32.6 °F /  0.3 °C 29.4 °F /  -1.4 °C 29.67in /  1004.6hPa NNW 1.0mph /  1.6km/h 4.0mph /  6.4km/h 88% 0.00in /  0mm
03:09 32.7 °F /  0.4 °C 29.8 °F /  -1.2 °C 29.67in /  1004.6hPa Calm   4.0mph /  6.4km/h 89% 0.00in /  0mm
03:15 32.7 °F /  0.4 °C 29.8 °F /  -1.2 °C 29.67in /  1004.6hPa Calm   3.0mph /  4.8km/h 89% 0.00in /  0mm
03:19 32.7 °F /  0.4 °C 29.8 °F /  -1.2 °C 29.67in /  1004.6hPa Calm   3.0mph /  4.8km/h 89% 0.00in /  0mm
03:25 32.7 °F /  0.4 °C 29.8 °F /  -1.2 °C 29.68in /  1005hPa Calm   3.0mph /  4.8km/h 89% 0.00in /  0mm
03:30 32.8 °F /  0.4 °C 29.9 °F /  -1.2 °C 29.67in /  1004.6hPa Calm   3.0mph /  4.8km/h 89% 0.00in /  0mm
03:40 32.8 °F /  0.4 °C 29.9 °F /  -1.2 °C 29.68in /  1005hPa NNW 1.0mph /  1.6km/h 4.0mph /  6.4km/h 89% 0.00in /  0mm
03:45 32.9 °F /  0.5 °C 30.0 °F /  -1.1 °C 29.68in /  1005hPa Calm   4.0mph /  6.4km/h 89% 0.00in /  0mm
03:55 32.9 °F /  0.5 °C 30.3 °F /  -0.9 °C 29.68in /  1005hPa Calm   4.0mph /  6.4km/h 90% 0.00in /  0mm
03:59 32.9 °F /  0.5 °C 30.3 °F /  -0.9 °C 29.68in /  1005hPa Calm   4.0mph /  6.4km/h 90% 0.00in /  0mm
04:04 32.9 °F /  0.5 °C 30.3 °F /  -0.9 °C 29.69in /  1005.3hPa NNE 1.0mph /  1.6km/h 6.0mph /  9.7km/h 90% 0.00in /  0mm
04:09 32.9 °F /  0.5 °C 30.3 °F /  -0.9 °C 29.69in /  1005.3hPa Calm   6.0mph /  9.7km/h 90% 0.00in /  0mm
04:15 32.9 °F /  0.5 °C 30.3 °F /  -0.9 °C 29.69in /  1005.3hPa North 2.0mph /  3.2km/h 6.0mph /  9.7km/h 90% 0.00in /  0mm
04:19 32.9 °F /  0.5 °C 30.3 °F /  -0.9 °C 29.69in /  1005.3hPa North 1.0mph /  1.6km/h 6.0mph /  9.7km/h 90% 0.00in /  0mm
04:24 32.8 °F /  0.4 °C 30.2 °F /  -1 °C 29.69in /  1005.3hPa Calm   4.0mph /  6.4km/h 90% 0.00in /  0mm
04:29 32.8 °F /  0.4 °C 30.2 °F /  -1 °C 29.69in /  1005.3hPa Calm   3.0mph /  4.8km/h 90% 0.00in /  0mm
04:34 32.8 °F /  0.4 °C 30.2 °F /  -1 °C 29.69in /  1005.3hPa Calm   7.0mph /  11.3km/h 90% 0.00in /  0mm
04:40 32.8 °F /  0.4 °C 30.2 °F /  -1 °C 29.70in /  1005.6hPa Calm   7.0mph /  11.3km/h 90% 0.00in /  0mm
04:45 32.8 °F /  0.4 °C 30.2 °F /  -1 °C 29.70in /  1005.6hPa NNE 1.0mph /  1.6km/h 5.0mph /  8km/h 90% 0.00in /  0mm
04:49 32.8 °F /  0.4 °C 30.2 °F /  -1 °C 29.70in /  1005.6hPa North 2.0mph /  3.2km/h 6.0mph /  9.7km/h 90% 0.00in /  0mm
04:54 32.7 °F /  0.4 °C 30.4 °F /  -0.9 °C 29.70in /  1005.6hPa NNE 1.0mph /  1.6km/h 7.0mph /  11.3km/h 91% 0.00in /  0mm
04:59 32.5 °F /  0.3 °C 30.2 °F /  -1 °C 29.70in /  1005.6hPa Calm   7.0mph /  11.3km/h 91% 0.00in /  0mm
05:05 32.5 °F /  0.3 °C 30.2 °F /  -1 °C 29.70in /  1005.6hPa Calm   6.0mph /  9.7km/h 91% 0.00in /  0mm
05:10 32.4 °F /  0.2 °C 30.1 °F /  -1.1 °C 29.71in /  1006hPa Calm   7.0mph /  11.3km/h 91% 0.00in /  0mm
05:14 32.3 °F /  0.2 °C 29.7 °F /  -1.3 °C 29.71in /  1006hPa Calm   7.0mph /  11.3km/h 90% 0.00in /  0mm
05:19 32.1 °F /  0.1 °C 29.5 °F /  -1.4 °C 29.71in /  1006hPa Calm   7.0mph /  11.3km/h 90% 0.00in /  0mm
05:25 32.1 °F /  0.1 °C 29.5 °F /  -1.4 °C 29.71in /  1006hPa Calm   3.0mph /  4.8km/h 90% 0.00in /  0mm
05:29 31.8 °F /  -0.1 °C 29.2 °F /  -1.6 °C 29.71in /  1006hPa NNE 2.0mph /  3.2km/h 4.0mph /  6.4km/h 90% 0.00in /  0mm
05:34 31.6 °F /  -0.2 °C 29.0 °F /  -1.7 °C 29.71in /  1006hPa Calm   4.0mph /  6.4km/h 90% 0.00in /  0mm
05:40 31.4 °F /  -0.3 °C 28.8 °F /  -1.8 °C 29.71in /  1006hPa Calm   3.0mph /  4.8km/h 90% 0.00in /  0mm
05:44 31.1 °F /  -0.5 °C 28.5 °F /  -1.9 °C 29.72in /  1006.3hPa Calm   1.0mph /  1.6km/h 90% 0.00in /  0mm
05:50 31.0 °F /  -0.6 °C 28.4 °F /  -2 °C 29.72in /  1006.3hPa Calm   2.0mph /  3.2km/h 90% 0.00in /  0mm
05:54 30.5 °F /  -0.8 °C 27.9 °F /  -2.3 °C 29.72in /  1006.3hPa Calm   2.0mph /  3.2km/h 90% 0.00in /  0mm
05:59 30.1 °F /  -1.1 °C 27.5 °F /  -2.5 °C 29.72in /  1006.3hPa Calm   2.0mph /  3.2km/h 90% 0.00in /  0mm
06:04 29.8 °F /  -1.2 °C 27.2 °F /  -2.7 °C 29.72in /  1006.3hPa Calm   2.0mph /  3.2km/h 90% 0.00in /  0mm
06:10 29.7 °F /  -1.3 °C 27.1 °F /  -2.7 °C 29.73in /  1006.7hPa NNE 1.0mph /  1.6km/h 4.0mph /  6.4km/h 90% 0.00in /  0mm
06:14 29.8 °F /  -1.2 °C 27.2 °F /  -2.7 °C 29.73in /  1006.7hPa NNE 1.0mph /  1.6km/h 4.0mph /  6.4km/h 90% 0.00in /  0mm
06:19 29.8 °F /  -1.2 °C 27.2 °F /  -2.7 °C 29.73in /  1006.7hPa Calm   4.0mph /  6.4km/h 90% 0.00in /  0mm
06:24 29.7 °F /  -1.3 °C 27.1 °F /  -2.7 °C 29.73in /  1006.7hPa Calm     90% 0.00in /  0mm
06:29 29.5 °F /  -1.4 °C 26.9 °F /  -2.8 °C 29.73in /  1006.7hPa Calm   2.0mph /  3.2km/h 90% 0.00in /  0mm
06:34 29.4 °F /  -1.4 °C 26.8 °F /  -2.9 °C 29.74in /  1007hPa Calm   2.0mph /  3.2km/h 90% 0.00in /  0mm
06:40 29.2 °F /  -1.6 °C 26.6 °F /  -3 °C 29.74in /  1007hPa Calm   2.0mph /  3.2km/h 90% 0.00in /  0mm
06:45 29.1 °F /  -1.6 °C 26.5 °F /  -3.1 °C 29.74in /  1007hPa Calm     90% 0.00in /  0mm
06:54 29.6 °F /  -1.3 °C 27.3 °F /  -2.6 °C 29.75in /  1007.3hPa Calm   4.0mph /  6.4km/h 91% 0.00in /  0mm
06:59 30.0 °F /  -1.1 °C 27.7 °F /  -2.4 °C 29.75in /  1007.3hPa North 1.0mph /  1.6km/h 6.0mph /  9.7km/h 91% 0.00in /  0mm
07:04 30.3 °F /  -0.9 °C 28.3 °F /  -2.1 °C 29.75in /  1007.3hPa Calm   6.0mph /  9.7km/h 92% 0.00in /  0mm
07:09 30.6 °F /  -0.8 °C 28.6 °F /  -1.9 °C 29.76in /  1007.7hPa NNE 2.0mph /  3.2km/h 5.0mph /  8km/h 92% 0.00in /  0mm
07:14 30.7 °F /  -0.7 °C 28.7 °F /  -1.8 °C 29.76in /  1007.7hPa Calm   5.0mph /  8km/h 92% 0.00in /  0mm
07:19 30.9 °F /  -0.6 °C 28.9 °F /  -1.7 °C 29.76in /  1007.7hPa Calm   4.0mph /  6.4km/h 92% 0.00in /  0mm
07:25 31.0 °F /  -0.6 °C 29.0 °F /  -1.7 °C 29.77in /  1008hPa Calm   3.0mph /  4.8km/h 92% 0.00in /  0mm
07:29 31.1 °F /  -0.5 °C 29.0 °F /  -1.7 °C 29.77in /  1008hPa North 1.0mph /  1.6km/h 4.0mph /  6.4km/h 92% 0.00in /  0mm
07:34 31.2 °F /  -0.4 °C 29.1 °F /  -1.6 °C 29.77in /  1008hPa Calm   4.0mph /  6.4km/h 92% 0.00in /  0mm
07:40 31.3 °F /  -0.4 °C 29.2 °F /  -1.6 °C 29.77in /  1008hPa NNE 1.0mph /  1.6km/h 4.0mph /  6.4km/h 92% 0.00in /  0mm
07:49 31.4 °F /  -0.3 °C 29.3 °F /  -1.5 °C 29.77in /  1008hPa Calm   4.0mph /  6.4km/h 92% 0.00in /  0mm
07:54 31.5 °F /  -0.3 °C 29.4 °F /  -1.4 °C 29.77in /  1008hPa North 1.0mph /  1.6km/h 5.0mph /  8km/h 92% 0.00in /  0mm
07:59 31.5 °F /  -0.3 °C 29.7 °F /  -1.3 °C 29.78in /  1008.4hPa Calm   5.0mph /  8km/h 93% 0.00in /  0mm
08:05 31.5 °F /  -0.3 °C 29.4 °F /  -1.4 °C 29.78in /  1008.4hPa North 1.0mph /  1.6km/h 4.0mph /  6.4km/h 92% 0.00in /  0mm
08:14 31.4 °F /  -0.3 °C 29.6 °F /  -1.3 °C 29.78in /  1008.4hPa NNW 3.0mph /  4.8km/h 11.0mph /  17.7km/h 93% 0.00in /  0mm
08:19 31.4 °F /  -0.3 °C 29.6 °F /  -1.3 °C 29.78in /  1008.4hPa Calm   11.0mph /  17.7km/h 93% 0.00in /  0mm
08:25 31.5 °F /  -0.3 °C 29.7 °F /  -1.3 °C 29.78in /  1008.4hPa NNW 1.0mph /  1.6km/h 4.0mph /  6.4km/h 93% 0.00in /  0mm
08:29 31.6 °F /  -0.2 °C 29.8 °F /  -1.2 °C 29.79in /  1008.7hPa NNE 1.0mph /  1.6km/h 4.0mph /  6.4km/h 93% 0.00in /  0mm
08:35 31.6 °F /  -0.2 °C 29.8 °F /  -1.2 °C 29.79in /  1008.7hPa NNW 3.0mph /  4.8km/h 10.0mph /  16.1km/h 93% 0.00in /  0mm
08:44 31.7 °F /  -0.2 °C 29.9 °F /  -1.2 °C 29.79in /  1008.7hPa North 1.0mph /  1.6km/h 8.0mph /  12.9km/h 93% 0.00in /  0mm
08:49 31.8 °F /  -0.1 °C 30.0 °F /  -1.1 °C 29.79in /  1008.7hPa Calm   9.0mph /  14.5km/h 93% 0.00in /  0mm
08:54 32.0 °F /  0 °C 30.2 °F /  -1 °C 29.79in /  1008.7hPa North 2.0mph /  3.2km/h 9.0mph /  14.5km/h 93% 0.00in /  0mm
08:59 32.0 °F /  0 °C 30.2 °F /  -1 °C 29.79in /  1008.7hPa Calm   7.0mph /  11.3km/h 93% 0.00in /  0mm
09:04 31.9 °F /  -0.1 °C 30.1 °F /  -1.1 °C 29.79in /  1008.7hPa NW 4.0mph /  6.4km/h 7.0mph /  11.3km/h 93% 0.00in /  0mm
09:09 31.7 °F /  -0.2 °C 29.9 °F /  -1.2 °C 29.80in /  1009hPa Calm   7.0mph /  11.3km/h 93% 0.00in /  0mm
09:14 32.0 °F /  0 °C 30.2 °F /  -1 °C 29.80in /  1009hPa Calm   4.0mph /  6.4km/h 93% 0.00in /  0mm
09:19 32.3 °F /  0.2 °C 30.5 °F /  -0.8 °C 29.80in /  1009hPa NNW 1.0mph /  1.6km/h 6.0mph /  9.7km/h 93% 0.01in /  0.3mm
09:24 33.2 °F /  0.7 °C 31.4 °F /  -0.3 °C 29.80in /  1009hPa North 1.0mph /  1.6km/h 6.0mph /  9.7km/h 93% 0.01in /  0.3mm
09:29 34.4 °F /  1.3 °C 32.6 °F /  0.3 °C 29.80in /  1009hPa North 1.0mph /  1.6km/h 6.0mph /  9.7km/h 93% 0.01in /  0.3mm
09:34 34.4 °F /  1.3 °C 32.3 °F /  0.2 °C 29.80in /  1009hPa North 1.0mph /  1.6km/h 5.0mph /  8km/h 92% 0.01in /  0.3mm
09:39 33.9 °F /  1.1 °C 30.7 °F /  -0.7 °C 29.80in /  1009hPa NNW 6.0mph /  9.7km/h 10.0mph /  16.1km/h 88% 0.02in /  0.5mm
09:44 33.2 °F /  0.7 °C 29.2 °F /  -1.6 °C 29.80in /  1009hPa NW 1.0mph /  1.6km/h 10.0mph /  16.1km/h 85% 0.02in /  0.5mm
09:49 33.4 °F /  0.8 °C 29.7 °F /  -1.3 °C 29.80in /  1009hPa NW 2.0mph /  3.2km/h 9.0mph /  14.5km/h 86% 0.02in /  0.5mm
09:54 34.7 °F /  1.5 °C 30.9 °F /  -0.6 °C 29.80in /  1009hPa NNW 2.0mph /  3.2km/h 7.0mph /  11.3km/h 86% 0.02in /  0.5mm
09:59 35.8 °F /  2.1 °C 31.1 °F /  -0.5 °C 29.80in /  1009hPa North 1.0mph /  1.6km/h 10.0mph /  16.1km/h 83% 0.02in /  0.5mm
10:04 36.0 °F /  2.2 °C 30.4 °F /  -0.9 °C 29.80in /  1009hPa NW 1.0mph /  1.6km/h 10.0mph /  16.1km/h 80% 0.02in /  0.5mm
10:09 36.3 °F /  2.4 °C 30.7 °F /  -0.7 °C 29.81in /  1009.4hPa North 1.0mph /  1.6km/h 7.0mph /  11.3km/h 80% 0.02in /  0.5mm
10:14 36.3 °F /  2.4 °C 29.8 °F /  -1.2 °C 29.80in /  1009hPa North 2.0mph /  3.2km/h 7.0mph /  11.3km/h 77% 0.02in /  0.5mm
10:19 36.1 °F /  2.3 °C 29.3 °F /  -1.5 °C 29.80in /  1009hPa NNE 1.0mph /  1.6km/h 9.0mph /  14.5km/h 76% 0.02in /  0.5mm
10:24 36.6 °F /  2.6 °C 30.1 °F /  -1.1 °C 29.80in /  1009hPa NW 4.0mph /  6.4km/h 9.0mph /  14.5km/h 77% 0.02in /  0.5mm
10:30 36.0 °F /  2.2 °C 28.5 °F /  -1.9 °C 29.80in /  1009hPa NW 6.0mph /  9.7km/h 10.0mph /  16.1km/h 74% 0.02in /  0.5mm
10:35 36.0 °F /  2.2 °C 29.8 °F /  -1.2 °C 29.80in /  1009hPa North 1.0mph /  1.6km/h 10.0mph /  16.1km/h 78% 0.02in /  0.5mm
10:44 38.8 °F /  3.8 °C 31.2 °F /  -0.4 °C 29.80in /  1009hPa North 3.0mph /  4.8km/h 12.0mph /  19.3km/h 74% 0.02in /  0.5mm
10:49 38.9 °F /  3.8 °C 28.1 °F /  -2.2 °C 29.80in /  1009hPa North 3.0mph /  4.8km/h 12.0mph /  19.3km/h 65% 0.02in /  0.5mm
10:55 38.9 °F /  3.8 °C 28.1 °F /  -2.2 °C 29.80in /  1009hPa North 2.0mph /  3.2km/h 10.0mph /  16.1km/h 65% 0.02in /  0.5mm
11:04 39.8 °F /  4.3 °C 27.8 °F /  -2.3 °C 29.80in /  1009hPa NNE 5.0mph /  8km/h 15.0mph /  24.1km/h 62% 0.02in /  0.5mm
11:09 40.0 °F /  4.4 °C 27.2 °F /  -2.7 °C 29.80in /  1009hPa NW 5.0mph /  8km/h 10.0mph /  16.1km/h 60% 0.02in /  0.5mm
11:14 40.1 °F /  4.5 °C 26.9 °F /  -2.8 °C 29.80in /  1009hPa North 5.0mph /  8km/h 11.0mph /  17.7km/h 59% 0.02in /  0.5mm
11:19 39.8 °F /  4.3 °C 26.6 °F /  -3 °C 29.80in /  1009hPa NW 5.0mph /  8km/h 13.0mph /  20.9km/h 59% 0.02in /  0.5mm
11:24 40.1 °F /  4.5 °C 26.9 °F /  -2.8 °C 29.80in /  1009hPa NNW 4.0mph /  6.4km/h 13.0mph /  20.9km/h 59% 0.02in /  0.5mm
11:29 40.7 °F /  4.8 °C 26.2 °F /  -3.2 °C 29.80in /  1009hPa WNW 6.0mph /  9.7km/h 11.0mph /  17.7km/h 56% 0.02in /  0.5mm
11:35 39.7 °F /  4.3 °C 26.5 °F /  -3.1 °C 29.79in /  1008.7hPa NNW 4.0mph /  6.4km/h 16.0mph /  25.7km/h 59% 0.02in /  0.5mm
11:40 40.0 °F /  4.4 °C 25.6 °F /  -3.6 °C 29.79in /  1008.7hPa NW 6.0mph /  9.7km/h 16.0mph /  25.7km/h 56% 0.02in /  0.5mm
11:45 39.6 °F /  4.2 °C 25.2 °F /  -3.8 °C 29.79in /  1008.7hPa NW 12.0mph /  19.3km/h 21.0mph /  33.8km/h 56% 0.02in /  0.5mm
11:55 40.8 °F /  4.9 °C 26.7 °F /  -2.9 °C 29.80in /  1009hPa NNW 8.0mph /  12.9km/h 18.0mph /  29km/h 57% 0.02in /  0.5mm
12:04 40.9 °F /  4.9 °C 24.2 °F /  -4.3 °C 29.79in /  1008.7hPa NW 12.0mph /  19.3km/h 19.0mph /  30.6km/h 51% 0.02in /  0.5mm
12:09 40.9 °F /  4.9 °C 24.2 °F /  -4.3 °C 29.79in /  1008.7hPa NW 8.0mph /  12.9km/h 19.0mph /  30.6km/h 51% 0.02in /  0.5mm
12:14 41.4 °F /  5.2 °C 24.6 °F /  -4.1 °C 29.79in /  1008.7hPa NNW 6.0mph /  9.7km/h 15.0mph /  24.1km/h 51% 0.02in /  0.5mm
12:19 41.8 °F /  5.4 °C 25.9 °F /  -3.4 °C 29.79in /  1008.7hPa NW 7.0mph /  11.3km/h 16.0mph /  25.7km/h 53% 0.02in /  0.5mm
12:25 41.9 °F /  5.5 °C 25.1 °F /  -3.8 °C 29.78in /  1008.4hPa NNW 8.0mph /  12.9km/h 17.0mph /  27.4km/h 51% 0.02in /  0.5mm
12:35 42.6 °F /  5.9 °C 24.8 °F /  -4 °C 29.79in /  1008.7hPa NW 5.0mph /  8km/h 16.0mph /  25.7km/h 49% 0.02in /  0.5mm
12:45 42.8 °F /  6 °C 25.0 °F /  -3.9 °C 29.78in /  1008.4hPa NNW 6.0mph /  9.7km/h 18.0mph /  29km/h 49% 0.02in /  0.5mm
12:54 43.0 °F /  6.1 °C 23.6 °F /  -4.7 °C 29.78in /  1008.4hPa NW 5.0mph /  8km/h 17.0mph /  27.4km/h 46% 0.02in /  0.5mm
12:59 43.1 °F /  6.2 °C 23.2 °F /  -4.9 °C 29.78in /  1008.4hPa NW 9.0mph /  14.5km/h 18.0mph /  29km/h 45% 0.02in /  0.5mm
13:05 43.1 °F /  6.2 °C 24.2 °F /  -4.3 °C 29.78in /  1008.4hPa North 5.0mph /  8km/h 18.0mph /  29km/h 47% 0.02in /  0.5mm
13:14 44.0 °F /  6.7 °C 22.9 °F /  -5.1 °C 29.78in /  1008.4hPa NW 8.0mph /  12.9km/h 15.0mph /  24.1km/h 43% 0.02in /  0.5mm
13:20 43.8 °F /  6.6 °C 24.4 °F /  -4.2 °C 29.78in /  1008.4hPa NNW 7.0mph /  11.3km/h 15.0mph /  24.1km/h 46% 0.02in /  0.5mm
13:30 42.8 °F /  6 °C 21.3 °F /  -5.9 °C 29.78in /  1008.4hPa NW 7.0mph /  11.3km/h 17.0mph /  27.4km/h 42% 0.02in /  0.5mm
13:40 44.3 °F /  6.8 °C 23.2 °F /  -4.9 °C 29.78in /  1008.4hPa NNW 3.0mph /  4.8km/h 13.0mph /  20.9km/h 43% 0.02in /  0.5mm
13:50 44.0 °F /  6.7 °C 21.2 °F /  -6 °C 29.78in /  1008.4hPa NNW 4.0mph /  6.4km/h 17.0mph /  27.4km/h 40% 0.02in /  0.5mm
14:00 44.2 °F /  6.8 °C 20.2 °F /  -6.6 °C 29.77in /  1008hPa NNW 7.0mph /  11.3km/h 21.0mph /  33.8km/h 38% 0.02in /  0.5mm
14:10 45.2 °F /  7.3 °C 21.7 °F /  -5.7 °C 29.77in /  1008hPa NNW 5.0mph /  8km/h 12.0mph /  19.3km/h 39% 0.02in /  0.5mm
14:19 45.2 °F /  7.3 °C 20.5 °F /  -6.4 °C 29.77in /  1008hPa NNW 9.0mph /  14.5km/h 16.0mph /  25.7km/h 37% 0.02in /  0.5mm
14:24 44.0 °F /  6.7 °C 19.4 °F /  -7 °C 29.77in /  1008hPa NNW 9.0mph /  14.5km/h 19.0mph /  30.6km/h 37% 0.02in /  0.5mm
14:30 44.3 °F /  6.8 °C 20.3 °F /  -6.5 °C 29.77in /  1008hPa NNW 4.0mph /  6.4km/h 19.0mph /  30.6km/h 38% 0.02in /  0.5mm
14:35 44.9 °F /  7.2 °C 19.6 °F /  -6.9 °C 29.77in /  1008hPa NNW 6.0mph /  9.7km/h 17.0mph /  27.4km/h 36% 0.02in /  0.5mm
14:44 43.9 °F /  6.6 °C 18.7 °F /  -7.4 °C 29.77in /  1008hPa NNW 8.0mph /  12.9km/h 19.0mph /  30.6km/h 36% 0.02in /  0.5mm
14:49 44.2 °F /  6.8 °C 19.6 °F /  -6.9 °C 29.77in /  1008hPa NNW 7.0mph /  11.3km/h 19.0mph /  30.6km/h 37% 0.02in /  0.5mm
14:55 43.7 °F /  6.5 °C 17.8 °F /  -7.9 °C 29.78in /  1008.4hPa NNW 10.0mph /  16.1km/h 23.0mph /  37km/h 35% 0.02in /  0.5mm
15:05 43.5 °F /  6.4 °C 18.3 °F /  -7.6 °C 29.77in /  1008hPa NNW 6.0mph /  9.7km/h 23.0mph /  37km/h 36% 0.02in /  0.5mm
15:15 44.5 °F /  6.9 °C 20.5 °F /  -6.4 °C 29.78in /  1008.4hPa North 7.0mph /  11.3km/h 20.0mph /  32.2km/h 38% 0.02in /  0.5mm
15:24 44.1 °F /  6.7 °C 17.5 °F /  -8.1 °C 29.78in /  1008.4hPa NW 14.0mph /  22.5km/h 21.0mph /  33.8km/h 34% 0.02in /  0.5mm
15:29 43.4 °F /  6.3 °C 18.2 °F /  -7.7 °C 29.78in /  1008.4hPa NNW 6.0mph /  9.7km/h 22.0mph /  35.4km/h 36% 0.02in /  0.5mm
15:35 43.6 °F /  6.4 °C 19.0 °F /  -7.2 °C 29.78in /  1008.4hPa NNE 7.0mph /  11.3km/h 22.0mph /  35.4km/h 37% 0.02in /  0.5mm
15:44 43.6 °F /  6.4 °C 17.1 °F /  -8.3 °C 29.78in /  1008.4hPa NNW 12.0mph /  19.3km/h 24.0mph /  38.6km/h 34% 0.02in /  0.5mm
15:49 43.6 °F /  6.4 °C 19.0 °F /  -7.2 °C 29.78in /  1008.4hPa NNW 9.0mph /  14.5km/h 24.0mph /  38.6km/h 37% 0.02in /  0.5mm
15:54 43.6 °F /  6.4 °C 20.3 °F /  -6.5 °C 29.78in /  1008.4hPa North 5.0mph /  8km/h 21.0mph /  33.8km/h 39% 0.02in /  0.5mm
16:04 44.2 °F /  6.8 °C 19.6 °F /  -6.9 °C 29.79in /  1008.7hPa North 7.0mph /  11.3km/h 18.0mph /  29km/h 37% 0.02in /  0.5mm
16:09 44.5 °F /  6.9 °C 17.9 °F /  -7.8 °C 29.79in /  1008.7hPa North 7.0mph /  11.3km/h 18.0mph /  29km/h 34% 0.02in /  0.5mm
16:14 44.3 °F /  6.8 °C 18.4 °F /  -7.6 °C 29.79in /  1008.7hPa North 7.0mph /  11.3km/h 18.0mph /  29km/h 35% 0.02in /  0.5mm
16:19 44.3 °F /  6.8 °C 18.4 °F /  -7.6 °C 29.79in /  1008.7hPa North 6.0mph /  9.7km/h 19.0mph /  30.6km/h 35% 0.02in /  0.5mm
16:25 44.2 °F /  6.8 °C 17.6 °F /  -8 °C 29.79in /  1008.7hPa North 7.0mph /  11.3km/h 19.0mph /  30.6km/h 34% 0.02in /  0.5mm
16:30 44.2 °F /  6.8 °C 18.3 °F /  -7.6 °C 29.79in /  1008.7hPa North 8.0mph /  12.9km/h 18.0mph /  29km/h 35% 0.02in /  0.5mm
16:39 44.0 °F /  6.7 °C 18.1 °F /  -7.7 °C 29.79in /  1008.7hPa NNW 7.0mph /  11.3km/h 17.0mph /  27.4km/h 35% 0.02in /  0.5mm
16:44 44.4 °F /  6.9 °C 18.5 °F /  -7.5 °C 29.80in /  1009hPa NNW 7.0mph /  11.3km/h 17.0mph /  27.4km/h 35% 0.02in /  0.5mm
16:49 44.3 °F /  6.8 °C 17.7 °F /  -7.9 °C 29.79in /  1008.7hPa NNW 6.0mph /  9.7km/h 15.0mph /  24.1km/h 34% 0.02in /  0.5mm
16:55 44.3 °F /  6.8 °C 17.0 °F /  -8.3 °C 29.80in /  1009hPa NNW 10.0mph /  16.1km/h 21.0mph /  33.8km/h 33% 0.02in /  0.5mm
17:04 45.0 °F /  7.2 °C 16.9 °F /  -8.4 °C 29.80in /  1009hPa NW 8.0mph /  12.9km/h 15.0mph /  24.1km/h 32% 0.02in /  0.5mm
17:09 44.9 °F /  7.2 °C 18.2 °F /  -7.7 °C 29.80in /  1009hPa NNW 4.0mph /  6.4km/h 22.0mph /  35.4km/h 34% 0.02in /  0.5mm
17:14 44.6 °F /  7 °C 17.3 °F /  -8.2 °C 29.79in /  1008.7hPa NW 9.0mph /  14.5km/h 22.0mph /  35.4km/h 33% 0.02in /  0.5mm
17:19 45.0 °F /  7.2 °C 18.3 °F /  -7.6 °C 29.79in /  1008.7hPa North 5.0mph /  8km/h 19.0mph /  30.6km/h 34% 0.02in /  0.5mm
17:24 45.4 °F /  7.4 °C 17.3 °F /  -8.2 °C 29.80in /  1009hPa NW 6.0mph /  9.7km/h 16.0mph /  25.7km/h 32% 0.02in /  0.5mm
17:30 44.2 °F /  6.8 °C 16.9 °F /  -8.4 °C 29.80in /  1009hPa NW 7.0mph /  11.3km/h 22.0mph /  35.4km/h 33% 0.02in /  0.5mm
17:40 43.6 °F /  6.4 °C 14.9 °F /  -9.5 °C 29.80in /  1009hPa NW 10.0mph /  16.1km/h 20.0mph /  32.2km/h 31% 0.02in /  0.5mm
17:49 43.6 °F /  6.4 °C 15.7 °F /  -9.1 °C 29.80in /  1009hPa NNW 8.0mph /  12.9km/h 17.0mph /  27.4km/h 32% 0.02in /  0.5mm
17:55 43.5 °F /  6.4 °C 17.0 °F /  -8.3 °C 29.79in /  1008.7hPa North 7.0mph /  11.3km/h 17.0mph /  27.4km/h 34% 0.02in /  0.5mm
18:00 43.5 °F /  6.4 °C 16.3 °F /  -8.7 °C 29.80in /  1009hPa North 6.0mph /  9.7km/h 15.0mph /  24.1km/h 33% 0.02in /  0.5mm
18:10 43.5 °F /  6.4 °C 15.6 °F /  -9.1 °C 29.80in /  1009hPa NNW 5.0mph /  8km/h 16.0mph /  25.7km/h 32% 0.02in /  0.5mm
18:19 43.0 °F /  6.1 °C 15.8 °F /  -9 °C 29.80in /  1009hPa NNW 3.0mph /  4.8km/h 19.0mph /  30.6km/h 33% 0.02in /  0.5mm
18:25 42.9 °F /  6.1 °C 15.1 °F /  -9.4 °C 29.81in /  1009.4hPa NNW 4.0mph /  6.4km/h 13.0mph /  20.9km/h 32% 0.02in /  0.5mm
18:34 42.4 °F /  5.8 °C 13.9 °F /  -10.1 °C 29.80in /  1009hPa NW 3.0mph /  4.8km/h 14.0mph /  22.5km/h 31% 0.02in /  0.5mm
18:40 42.3 °F /  5.7 °C 13.8 °F /  -10.1 °C 29.80in /  1009hPa North 5.0mph /  8km/h 13.0mph /  20.9km/h 31% 0.02in /  0.5mm
18:50 41.5 °F /  5.3 °C 13.1 °F /  -10.5 °C 29.80in /  1009hPa NW 4.0mph /  6.4km/h 19.0mph /  30.6km/h 31% 0.02in /  0.5mm
18:55 41.2 °F /  5.1 °C 12.8 °F /  -10.7 °C 29.81in /  1009.4hPa NW 4.0mph /  6.4km/h 19.0mph /  30.6km/h 31% 0.02in /  0.5mm
19:04 40.5 °F /  4.7 °C 12.2 °F /  -11 °C 29.81in /  1009.4hPa NNW 6.0mph /  9.7km/h 15.0mph /  24.1km/h 31% 0.02in /  0.5mm
19:09 40.0 °F /  4.4 °C 11.8 °F /  -11.2 °C 29.81in /  1009.4hPa NNW 5.0mph /  8km/h 12.0mph /  19.3km/h 31% 0.02in /  0.5mm
19:14 39.6 °F /  4.2 °C 12.1 °F /  -11.1 °C 29.81in /  1009.4hPa NW 2.0mph /  3.2km/h 12.0mph /  19.3km/h 32% 0.02in /  0.5mm
19:19 39.0 °F /  3.9 °C 11.6 °F /  -11.3 °C 29.81in /  1009.4hPa NW 4.0mph /  6.4km/h 10.0mph /  16.1km/h 32% 0.02in /  0.5mm
19:24 38.7 °F /  3.7 °C 12.1 °F /  -11.1 °C 29.81in /  1009.4hPa NW 6.0mph /  9.7km/h 10.0mph /  16.1km/h 33% 0.02in /  0.5mm
19:29 38.5 °F /  3.6 °C 11.9 °F /  -11.2 °C 29.81in /  1009.4hPa NNW 3.0mph /  4.8km/h 10.0mph /  16.1km/h 33% 0.02in /  0.5mm
19:34 38.2 °F /  3.4 °C 12.3 °F /  -10.9 °C 29.81in /  1009.4hPa NNW 1.0mph /  1.6km/h 9.0mph /  14.5km/h 34% 0.02in /  0.5mm
19:39 37.9 °F /  3.3 °C 12.7 °F /  -10.7 °C 29.82in /  1009.7hPa North 1.0mph /  1.6km/h 9.0mph /  14.5km/h 35% 0.02in /  0.5mm
19:45 37.6 °F /  3.1 °C 11.8 °F /  -11.2 °C 29.82in /  1009.7hPa NNW 1.0mph /  1.6km/h 8.0mph /  12.9km/h 34% 0.02in /  0.5mm
19:55 37.0 °F /  2.8 °C 12.5 °F /  -10.8 °C 29.82in /  1009.7hPa North 1.0mph /  1.6km/h 7.0mph /  11.3km/h 36% 0.02in /  0.5mm
20:04 36.6 °F /  2.6 °C 11.5 °F /  -11.4 °C 29.82in /  1009.7hPa Calm   7.0mph /  11.3km/h 35% 0.02in /  0.5mm
20:09 36.4 °F /  2.4 °C 11.3 °F /  -11.5 °C 29.82in /  1009.7hPa NNW 1.0mph /  1.6km/h 6.0mph /  9.7km/h 35% 0.02in /  0.5mm
20:14 36.2 °F /  2.3 °C 12.4 °F /  -10.9 °C 29.82in /  1009.7hPa Calm   7.0mph /  11.3km/h 37% 0.02in /  0.5mm
20:19 36.0 °F /  2.2 °C 11.6 °F /  -11.3 °C 29.82in /  1009.7hPa Calm   7.0mph /  11.3km/h 36% 0.02in /  0.5mm
20:24 35.8 °F /  2.1 °C 12.1 °F /  -11.1 °C 29.82in /  1009.7hPa NNW 1.0mph /  1.6km/h 5.0mph /  8km/h 37% 0.02in /  0.5mm
20:29 35.6 °F /  2 °C 12.5 °F /  -10.8 °C 29.82in /  1009.7hPa NNW 1.0mph /  1.6km/h 5.0mph /  8km/h 38% 0.02in /  0.5mm
20:35 35.8 °F /  2.1 °C 12.1 °F /  -11.1 °C 29.82in /  1009.7hPa NNW 1.0mph /  1.6km/h 8.0mph /  12.9km/h 37% 0.02in /  0.5mm
20:44 35.4 °F /  1.9 °C 11.7 °F /  -11.3 °C 29.82in /  1009.7hPa North 1.0mph /  1.6km/h 6.0mph /  9.7km/h 37% 0.02in /  0.5mm
20:49 35.0 °F /  1.7 °C 11.9 °F /  -11.2 °C 29.82in /  1009.7hPa NNW 1.0mph /  1.6km/h 6.0mph /  9.7km/h 38% 0.02in /  0.5mm
20:54 34.8 °F /  1.6 °C 11.8 °F /  -11.2 °C 29.82in /  1009.7hPa Calm   6.0mph /  9.7km/h 38% 0.02in /  0.5mm
20:59 34.5 °F /  1.4 °C 12.1 °F /  -11.1 °C 29.83in /  1010hPa Calm   4.0mph /  6.4km/h 39% 0.02in /  0.5mm
21:04 34.4 °F /  1.3 °C 12.6 °F /  -10.8 °C 29.83in /  1010hPa Calm   4.0mph /  6.4km/h 40% 0.02in /  0.5mm
21:09 34.4 °F /  1.3 °C 12.0 °F /  -11.1 °C 29.83in /  1010hPa NNW 1.0mph /  1.6km/h 4.0mph /  6.4km/h 39% 0.02in /  0.5mm
21:14 34.4 °F /  1.3 °C 12.0 °F /  -11.1 °C 29.83in /  1010hPa Calm   5.0mph /  8km/h 39% 0.02in /  0.5mm
21:19 34.6 °F /  1.4 °C 11.6 °F /  -11.3 °C 29.83in /  1010hPa Calm   7.0mph /  11.3km/h 38% 0.02in /  0.5mm
21:25 34.8 °F /  1.6 °C 12.3 °F /  -10.9 °C 29.83in /  1010hPa Calm   7.0mph /  11.3km/h 39% 0.02in /  0.5mm
21:34 34.4 °F /  1.3 °C 12.6 °F /  -10.8 °C 29.83in /  1010hPa Calm   5.0mph /  8km/h 40% 0.02in /  0.5mm
21:40 34.2 °F /  1.2 °C 12.4 °F /  -10.9 °C 29.83in /  1010hPa Calm   5.0mph /  8km/h 40% 0.02in /  0.5mm
21:49 33.7 °F /  0.9 °C 13.6 °F /  -10.2 °C 29.83in /  1010hPa Calm   4.0mph /  6.4km/h 43% 0.02in /  0.5mm
21:54 33.4 °F /  0.8 °C 14.3 °F /  -9.8 °C 29.83in /  1010hPa Calm   4.0mph /  6.4km/h 45% 0.02in /  0.5mm
21:59 33.3 °F /  0.7 °C 13.2 °F /  -10.4 °C 29.83in /  1010hPa Calm   2.0mph /  3.2km/h 43% 0.02in /  0.5mm
22:04 33.2 °F /  0.7 °C 14.1 °F /  -9.9 °C 29.83in /  1010hPa Calm   4.0mph /  6.4km/h 45% 0.02in /  0.5mm
22:09 33.5 °F /  0.8 °C 13.9 °F /  -10.1 °C 29.83in /  1010hPa Calm   4.0mph /  6.4km/h 44% 0.02in /  0.5mm
22:14 33.5 °F /  0.8 °C 13.9 °F /  -10.1 °C 29.83in /  1010hPa Calm   4.0mph /  6.4km/h 44% 0.02in /  0.5mm
22:19 33.5 °F /  0.8 °C 14.4 °F /  -9.8 °C 29.83in /  1010hPa Calm     45% 0.02in /  0.5mm
22:25 33.4 °F /  0.8 °C 14.8 °F /  -9.6 °C 29.83in /  1010hPa Calm   1.0mph /  1.6km/h 46% 0.02in /  0.5mm
22:35 33.2 °F /  0.7 °C 14.1 °F /  -9.9 °C 29.83in /  1010hPa Calm   3.0mph /  4.8km/h 45% 0.02in /  0.5mm
22:45 33.0 °F /  0.6 °C 14.0 °F /  -10 °C 29.83in /  1010hPa NNE 1.0mph /  1.6km/h 4.0mph /  6.4km/h 45% 0.02in /  0.5mm
22:55 33.2 °F /  0.7 °C 14.7 °F /  -9.6 °C 29.84in /  1010.4hPa NNE 1.0mph /  1.6km/h 5.0mph /  8km/h 46% 0.02in /  0.5mm
23:04 33.0 °F /  0.6 °C 14.0 °F /  -10 °C 29.84in /  1010.4hPa Calm   1.0mph /  1.6km/h 45% 0.02in /  0.5mm
23:09 33.0 °F /  0.6 °C 13.5 °F /  -10.3 °C 29.84in /  1010.4hPa Calm   4.0mph /  6.4km/h 44% 0.02in /  0.5mm
23:14 33.1 °F /  0.6 °C 14.1 °F /  -9.9 °C 29.84in /  1010.4hPa Calm   8.0mph /  12.9km/h 45% 0.02in /  0.5mm
23:19 32.8 °F /  0.4 °C 14.3 °F /  -9.8 °C 29.84in /  1010.4hPa Calm   8.0mph /  12.9km/h 46% 0.02in /  0.5mm
23:24 32.6 °F /  0.3 °C 14.1 °F /  -9.9 °C 29.84in /  1010.4hPa Calm   2.0mph /  3.2km/h 46% 0.02in /  0.5mm
23:30 32.5 °F /  0.3 °C 14.0 °F /  -10 °C 29.83in /  1010hPa NNE 1.0mph /  1.6km/h 5.0mph /  8km/h 46% 0.02in /  0.5mm
23:39 32.3 °F /  0.2 °C 14.3 °F /  -9.8 °C 29.84in /  1010.4hPa Calm   2.0mph /  3.2km/h 47% 0.02in /  0.5mm
23:44 32.2 °F /  0.1 °C 15.2 °F /  -9.3 °C 29.83in /  1010hPa Calm   3.0mph /  4.8km/h 49% 0.02in /  0.5mm
23:49 32.0 °F /  0 °C 14.5 °F /  -9.7 °C 29.84in /  1010.4hPa Calm   3.0mph /  4.8km/h 48% 0.02in /  0.5mm
23:54 31.8 °F /  -0.1 °C 13.9 °F /  -10.1 °C 29.84in /  1010.4hPa Calm     47% 0.02in /  0.5mm
Westford Weather
Compliments of Weather Underground

 
 
Current Radar Loop:

Copyright © WestfordWeather.net 2007-2014. All rights reserved.